createdAt,value
2019-06-08T00:00:34.614Z,303.91
2019-06-08T00:01:34.656Z,304.33
2019-06-08T00:02:34.622Z,304.92
2019-06-08T00:03:44.001Z,304.30
2019-06-08T00:04:34.563Z,305.43
2019-06-08T00:05:34.548Z,303.00
2019-06-08T00:06:34.526Z,305.78
2019-06-08T00:07:34.503Z,304.29
2019-06-08T00:08:34.506Z,304.53
2019-06-08T00:09:34.516Z,305.85
2019-06-08T00:10:34.496Z,305.15
2019-06-08T00:11:34.470Z,305.11
2019-06-08T00:12:34.459Z,303.91
2019-06-08T00:13:34.548Z,307.12
2019-06-08T00:14:34.457Z,304.01
2019-06-08T00:15:34.452Z,305.15
2019-06-08T00:16:34.429Z,305.09
2019-06-08T00:17:38.895Z,304.13
2019-06-08T00:18:34.367Z,305.09
2019-06-08T00:19:34.410Z,305.17
2019-06-08T00:20:34.378Z,306.79
2019-06-08T00:21:34.363Z,305.12
2019-06-08T00:22:34.327Z,303.71
2019-06-08T00:23:34.332Z,305.92
2019-06-08T00:24:34.315Z,303.00
2019-06-08T00:25:34.353Z,305.11
2019-06-08T00:26:34.300Z,304.24
2019-06-08T00:27:34.330Z,303.67
2019-06-08T00:28:34.280Z,305.37
2019-06-08T00:29:34.260Z,303.88
2019-06-08T00:30:35.243Z,305.35
2019-06-08T00:31:34.253Z,303.85
2019-06-08T00:32:34.250Z,304.80
2019-06-08T00:33:34.238Z,305.91
2019-06-08T00:34:34.236Z,305.71
2019-06-08T00:35:34.220Z,305.14
2019-06-08T00:36:34.198Z,304.60
2019-06-08T00:37:34.193Z,303.80
2019-06-08T00:38:34.176Z,305.05
2019-06-08T00:39:34.165Z,304.91
2019-06-08T00:40:34.156Z,306.31
2019-06-08T00:41:34.171Z,305.52
2019-06-08T00:42:34.178Z,305.29
2019-06-08T00:43:34.119Z,305.72
2019-06-08T00:44:43.512Z,304.64
2019-06-08T00:45:34.075Z,304.89
2019-06-08T00:46:34.099Z,303.84
2019-06-08T00:47:46.949Z,304.80
2019-06-08T00:48:35.091Z,304.03
2019-06-08T00:49:34.083Z,307.36
2019-06-08T00:50:34.043Z,305.12
2019-06-08T00:51:34.011Z,305.07
2019-06-08T00:52:34.067Z,305.78
2019-06-08T00:53:34.007Z,305.06
2019-06-08T00:54:34.022Z,307.31
2019-06-08T00:55:33.988Z,304.89
2019-06-08T00:56:33.993Z,304.48
2019-06-08T00:57:33.991Z,306.88
2019-06-08T00:58:33.958Z,306.75
2019-06-08T00:59:33.930Z,304.77
2019-06-08T01:00:33.959Z,304.79
2019-06-08T01:01:44.020Z,304.91
2019-06-08T01:02:44.077Z,305.63
2019-06-08T01:03:42.584Z,305.46
2019-06-08T01:04:33.877Z,305.19
2019-06-08T01:05:34.482Z,304.41
2019-06-08T01:06:43.139Z,304.52
2019-06-08T01:07:43.138Z,305.86
2019-06-08T01:08:33.855Z,303.35
2019-06-08T01:09:33.862Z,305.14
2019-06-08T01:10:33.820Z,305.01
2019-06-08T01:11:33.792Z,305.17
2019-06-08T01:12:33.797Z,305.71
2019-06-08T01:13:33.822Z,306.04
2019-06-08T01:14:33.777Z,305.26
2019-06-08T01:15:34.461Z,303.99
2019-06-08T01:16:33.838Z,306.75
2019-06-08T01:17:33.751Z,304.35
2019-06-08T01:18:33.754Z,303.84
2019-06-08T01:19:33.766Z,303.46
2019-06-08T01:20:33.710Z,305.25
2019-06-08T01:21:33.726Z,305.77
2019-06-08T01:22:33.706Z,305.39
2019-06-08T01:23:33.685Z,304.80
2019-06-08T01:24:33.747Z,306.78
2019-06-08T01:25:33.669Z,306.50
2019-06-08T01:26:33.663Z,304.25
2019-06-08T01:27:33.641Z,305.50
2019-06-08T01:28:33.646Z,305.42
2019-06-08T01:29:33.678Z,305.17
2019-06-08T01:30:33.634Z,305.82
2019-06-08T01:31:33.642Z,304.64
2019-06-08T01:32:33.661Z,305.47
2019-06-08T01:33:33.572Z,305.11
2019-06-08T01:34:33.573Z,305.65
2019-06-08T01:35:33.606Z,305.20
2019-06-08T01:36:33.554Z,304.48
2019-06-08T01:37:33.535Z,303.50
2019-06-08T01:38:33.573Z,303.71
2019-06-08T01:39:33.508Z,303.44
2019-06-08T01:40:33.542Z,305.64
2019-06-08T01:41:33.546Z,305.16
2019-06-08T01:42:33.497Z,308.73
2019-06-08T01:43:33.474Z,303.81
2019-06-08T01:44:33.475Z,303.82
2019-06-08T01:45:33.506Z,305.93
2019-06-08T01:46:33.441Z,305.08
2019-06-08T01:47:33.453Z,306.15
2019-06-08T01:48:33.416Z,303.82
2019-06-08T01:49:33.426Z,303.65
2019-06-08T01:50:33.557Z,304.72
2019-06-08T01:51:33.428Z,303.90
2019-06-08T01:52:33.400Z,303.80
2019-06-08T01:53:33.358Z,304.51
2019-06-08T01:54:33.426Z,303.36
2019-06-08T01:55:33.363Z,304.09
2019-06-08T01:56:33.455Z,302.91
2019-06-08T01:57:33.795Z,301.17
2019-06-08T01:58:33.541Z,302.82
2019-06-08T01:59:34.741Z,302.52
2019-06-08T02:00:39.248Z,301.71
2019-06-08T02:01:34.301Z,301.31
2019-06-08T02:02:34.196Z,304.24
2019-06-08T02:03:34.781Z,303.13
2019-06-08T02:04:34.726Z,301.91
2019-06-08T02:05:34.450Z,303.67
2019-06-08T02:06:34.558Z,300.69
2019-06-08T02:07:34.295Z,300.73
2019-06-08T02:08:33.238Z,301.05
2019-06-08T02:09:33.193Z,303.38
2019-06-08T02:10:33.193Z,301.22
2019-06-08T02:11:33.187Z,301.78
2019-06-08T02:12:33.175Z,302.51
2019-06-08T02:13:33.208Z,301.04
2019-06-08T02:14:33.305Z,301.17
2019-06-08T02:15:33.867Z,301.87
2019-06-08T02:16:33.399Z,299.68
2019-06-08T02:17:33.502Z,301.23
2019-06-08T02:18:43.817Z,303.38
2019-06-08T02:19:34.801Z,302.49
2019-06-08T02:20:33.092Z,301.42
2019-06-08T02:21:33.068Z,303.41
2019-06-08T02:22:33.145Z,302.15
2019-06-08T02:23:33.170Z,302.20
2019-06-08T02:24:33.370Z,301.09
2019-06-08T02:25:33.562Z,301.59
2019-06-08T02:26:35.184Z,302.12
2019-06-08T02:27:33.569Z,301.60
2019-06-08T02:28:33.646Z,301.50
2019-06-08T02:29:33.717Z,300.93
2019-06-08T02:30:36.103Z,301.84
2019-06-08T02:31:34.797Z,301.63
2019-06-08T02:32:33.543Z,302.07
2019-06-08T02:33:34.691Z,304.10
2019-06-08T02:34:35.046Z,300.88
2019-06-08T02:35:35.074Z,302.56
2019-06-08T02:36:33.723Z,302.58
2019-06-08T02:37:33.165Z,302.01
2019-06-08T02:38:34.603Z,303.40
2019-06-08T02:39:32.942Z,303.76
2019-06-08T02:40:34.582Z,303.44
2019-06-08T02:41:33.181Z,303.87
2019-06-08T02:42:34.672Z,302.31
2019-06-08T02:43:33.375Z,302.61
2019-06-08T02:45:50.279Z,299.80
2019-06-08T02:47:00.291Z,304.06
2019-06-08T02:47:50.199Z,304.57
2019-06-08T02:49:03.939Z,302.70
2019-06-08T02:49:50.146Z,302.20
2019-06-08T02:50:59.167Z,304.03
2019-06-08T02:51:50.186Z,304.52
2019-06-08T02:52:50.137Z,304.15
2019-06-08T02:53:50.154Z,304.30
2019-06-08T02:54:50.146Z,303.54
2019-06-08T02:55:50.103Z,303.18
2019-06-08T02:56:50.088Z,302.52
2019-06-08T02:57:50.108Z,303.86
2019-06-08T02:58:50.104Z,304.31
2019-06-08T02:59:50.066Z,303.35
2019-06-08T03:00:50.060Z,303.38
2019-06-08T03:01:50.014Z,303.21
2019-06-08T03:02:50.031Z,304.09
2019-06-08T03:03:50.009Z,305.28
2019-06-08T03:04:50.034Z,304.56
2019-06-08T03:05:49.993Z,306.35
2019-06-08T03:06:50.037Z,305.24
2019-06-08T03:07:49.965Z,302.62
2019-06-08T03:08:50.005Z,302.41
2019-06-08T03:09:49.957Z,304.17
2019-06-08T03:10:49.951Z,302.27
2019-06-08T03:11:49.941Z,302.05
2019-06-08T03:12:49.934Z,302.95
2019-06-08T03:13:49.890Z,302.51
2019-06-08T03:14:49.949Z,305.30
2019-06-08T03:15:49.888Z,302.33
2019-06-08T03:16:49.904Z,302.67
2019-06-08T03:17:49.884Z,302.71
2019-06-08T03:18:49.881Z,303.55
2019-06-08T03:19:49.841Z,305.08
2019-06-08T03:20:49.825Z,305.10
2019-06-08T03:21:49.843Z,302.27
2019-06-08T03:22:49.810Z,301.39
2019-06-08T03:23:49.810Z,302.79
2019-06-08T03:24:49.847Z,302.07
2019-06-08T03:25:53.046Z,302.87
2019-06-08T03:26:49.838Z,301.92
2019-06-08T03:27:49.774Z,302.17
2019-06-08T03:28:49.761Z,302.73
2019-06-08T03:29:49.765Z,302.03
2019-06-08T03:30:54.451Z,300.75
2019-06-08T03:31:55.678Z,300.71
2019-06-08T03:32:56.430Z,303.11
2019-06-08T03:33:55.827Z,303.51
2019-06-08T03:34:55.716Z,303.83
2019-06-08T03:35:57.074Z,303.03
2019-06-08T03:36:56.128Z,303.23
2019-06-08T03:37:50.702Z,302.52
2019-06-08T03:38:49.636Z,302.42
2019-06-08T03:39:49.614Z,302.28
2019-06-08T03:40:49.625Z,301.15
2019-06-08T03:41:49.625Z,300.68
2019-06-08T03:42:50.975Z,301.85
2019-06-08T03:43:49.595Z,301.10
2019-06-08T03:44:49.585Z,303.15
2019-06-08T03:45:49.595Z,302.17
2019-06-08T03:46:49.589Z,303.24
2019-06-08T03:47:49.579Z,303.12
2019-06-08T03:48:49.560Z,303.64
2019-06-08T03:49:56.763Z,302.86
2019-06-08T03:50:50.520Z,304.58
2019-06-08T03:51:49.506Z,304.57
2019-06-08T03:52:49.478Z,304.26
2019-06-08T03:53:49.515Z,305.26
2019-06-08T03:54:49.477Z,304.87
2019-06-08T03:55:49.480Z,303.16
2019-06-08T03:56:49.446Z,303.56
2019-06-08T03:57:49.451Z,303.83
2019-06-08T03:58:49.464Z,303.42
2019-06-08T03:59:49.436Z,302.13
2019-06-08T04:00:49.406Z,303.21
2019-06-08T04:01:50.005Z,302.10
2019-06-08T04:04:07.124Z,300.10
2019-06-08T04:05:06.452Z,304.03
2019-06-08T04:06:06.422Z,302.24
2019-06-08T04:07:06.465Z,302.30
2019-06-08T04:08:06.412Z,300.84
2019-06-08T04:09:06.560Z,302.23
2019-06-08T04:10:06.392Z,302.07
2019-06-08T04:11:06.368Z,301.30
2019-06-08T04:12:06.364Z,300.69
2019-06-08T04:13:06.353Z,300.23
2019-06-08T04:14:06.347Z,299.23
2019-06-08T04:15:06.326Z,300.81
2019-06-08T04:16:06.346Z,300.84
2019-06-08T04:17:06.345Z,299.58
2019-06-08T04:18:06.301Z,303.03
2019-06-08T04:19:06.297Z,301.77
2019-06-08T04:20:11.236Z,301.86
2019-06-08T04:21:07.268Z,302.31
2019-06-08T04:22:06.257Z,301.50
2019-06-08T04:23:06.233Z,302.75
2019-06-08T04:24:06.298Z,303.18
2019-06-08T04:25:06.228Z,302.21
2019-06-08T04:26:06.218Z,301.53
2019-06-08T04:27:06.185Z,301.46
2019-06-08T04:28:06.235Z,301.61
2019-06-08T04:29:06.183Z,301.77
2019-06-08T04:30:06.196Z,301.32
2019-06-08T04:31:06.176Z,302.95
2019-06-08T04:32:06.184Z,302.52
2019-06-08T04:33:06.152Z,301.19
2019-06-08T04:34:06.149Z,302.03
2019-06-08T04:35:06.175Z,300.96
2019-06-08T04:36:06.098Z,300.86
2019-06-08T04:37:06.082Z,302.88
2019-06-08T04:38:06.093Z,300.87
2019-06-08T04:39:06.128Z,301.40
2019-06-08T04:40:06.042Z,302.52
2019-06-08T04:41:06.071Z,300.14
2019-06-08T04:42:06.071Z,302.61
2019-06-08T04:43:06.079Z,302.43
2019-06-08T04:44:06.036Z,301.19
2019-06-08T04:45:06.024Z,301.65
2019-06-08T04:46:05.991Z,301.21
2019-06-08T04:47:05.988Z,302.67
2019-06-08T04:48:09.496Z,302.92
2019-06-08T04:49:06.021Z,301.99
2019-06-08T04:50:21.466Z,301.19
2019-06-08T04:51:07.813Z,300.36
2019-06-08T04:52:05.966Z,302.67
2019-06-08T04:53:05.985Z,301.17
2019-06-08T04:54:05.917Z,300.51
2019-06-08T04:55:06.026Z,301.78
2019-06-08T04:56:09.207Z,302.09
2019-06-08T04:57:05.973Z,300.65
2019-06-08T04:58:05.891Z,302.18
2019-06-08T05:00:23.417Z,298.88
2019-06-08T05:01:23.341Z,301.66
2019-06-08T05:02:23.335Z,301.42
2019-06-08T05:03:23.296Z,301.84
2019-06-08T05:04:23.280Z,302.34
2019-06-08T05:05:24.081Z,300.69
2019-06-08T05:06:23.241Z,302.02
2019-06-08T05:07:23.221Z,302.60
2019-06-08T05:08:23.287Z,302.07
2019-06-08T05:09:32.170Z,302.52
2019-06-08T05:10:23.257Z,300.85
2019-06-08T05:11:23.165Z,301.32
2019-06-08T05:12:23.152Z,300.43
2019-06-08T05:13:23.254Z,300.51
2019-06-08T05:14:23.152Z,300.57
2019-06-08T05:15:23.197Z,300.90
2019-06-08T05:16:23.118Z,301.50
2019-06-08T05:17:23.162Z,300.94
2019-06-08T05:18:25.979Z,302.33
2019-06-08T05:19:23.081Z,299.90
2019-06-08T05:20:37.732Z,300.76
2019-06-08T05:21:24.089Z,302.08
2019-06-08T05:22:23.075Z,299.50
2019-06-08T05:23:23.025Z,300.67
2019-06-08T05:24:23.036Z,300.67
2019-06-08T05:25:23.036Z,300.48
2019-06-08T05:26:23.058Z,300.76
2019-06-08T05:27:23.022Z,299.88
2019-06-08T05:28:23.041Z,301.60
2019-06-08T05:29:23.041Z,300.79
2019-06-08T05:30:22.998Z,301.57
2019-06-08T05:31:22.965Z,300.87
2019-06-08T05:32:23.023Z,301.55
2019-06-08T05:33:22.977Z,301.65
2019-06-08T05:34:22.960Z,301.51
2019-06-08T05:35:22.947Z,300.94
2019-06-08T05:36:22.944Z,301.72
2019-06-08T05:37:22.995Z,302.18
2019-06-08T05:38:22.880Z,301.72
2019-06-08T05:39:22.914Z,301.15
2019-06-08T05:40:22.873Z,301.16
2019-06-08T05:41:24.198Z,302.12
2019-06-08T05:42:22.839Z,302.25
2019-06-08T05:43:22.883Z,302.30
2019-06-08T05:44:22.859Z,303.23
2019-06-08T05:45:22.803Z,302.33
2019-06-08T05:46:22.826Z,299.57
2019-06-08T05:47:22.811Z,301.41
2019-06-08T05:48:22.784Z,301.64
2019-06-08T05:49:22.764Z,301.34
2019-06-08T05:50:22.782Z,302.14
2019-06-08T05:51:22.758Z,302.12
2019-06-08T05:52:22.773Z,301.56
2019-06-08T05:53:22.752Z,301.70
2019-06-08T05:54:22.794Z,302.33
2019-06-08T05:55:22.751Z,300.45
2019-06-08T05:56:22.701Z,301.58
2019-06-08T05:57:22.717Z,300.60
2019-06-08T05:58:22.682Z,300.72
2019-06-08T05:59:22.670Z,301.59
2019-06-08T06:00:22.668Z,301.33
2019-06-08T06:01:23.671Z,301.58
2019-06-08T06:02:22.624Z,299.93
2019-06-08T06:03:22.627Z,300.62
2019-06-08T06:04:22.611Z,300.70
2019-06-08T06:05:22.586Z,301.06
2019-06-08T06:06:22.705Z,300.43
2019-06-08T06:07:22.637Z,301.09
2019-06-08T06:08:22.564Z,301.36
2019-06-08T06:09:22.585Z,302.13
2019-06-08T06:10:22.725Z,301.63
2019-06-08T06:11:22.600Z,300.18
2019-06-08T06:12:23.354Z,300.91
2019-06-08T06:13:23.357Z,300.49
2019-06-08T06:14:22.511Z,300.98
2019-06-08T06:15:22.491Z,300.43
2019-06-08T06:16:22.526Z,300.18
2019-06-08T06:17:22.539Z,300.23
2019-06-08T06:18:22.443Z,300.62
2019-06-08T06:19:22.447Z,300.35
2019-06-08T06:20:22.505Z,299.80
2019-06-08T06:21:22.423Z,300.80
2019-06-08T06:22:22.631Z,300.40
2019-06-08T06:23:22.405Z,300.12
2019-06-08T06:24:22.431Z,301.06
2019-06-08T06:25:22.457Z,300.36
2019-06-08T06:26:22.370Z,300.72
2019-06-08T06:27:22.429Z,300.83
2019-06-08T06:28:22.436Z,300.62
2019-06-08T06:29:22.376Z,299.45
2019-06-08T06:30:22.381Z,300.93
2019-06-08T06:31:22.342Z,300.90
2019-06-08T06:32:22.328Z,300.03
2019-06-08T06:33:22.334Z,300.98
2019-06-08T06:34:22.409Z,299.78
2019-06-08T06:35:22.296Z,300.93
2019-06-08T06:36:22.264Z,298.88
2019-06-08T06:37:22.361Z,299.19
2019-06-08T06:38:22.329Z,299.49
2019-06-08T06:39:22.334Z,299.73
2019-06-08T06:40:22.645Z,298.34
2019-06-08T06:41:22.420Z,298.76
2019-06-08T06:42:24.788Z,298.28
2019-06-08T06:43:22.545Z,299.56
2019-06-08T06:44:22.583Z,298.86
2019-06-08T06:45:22.395Z,299.41
2019-06-08T06:46:22.268Z,299.12
2019-06-08T06:47:22.259Z,299.83
2019-06-08T06:48:23.610Z,299.69
2019-06-08T06:49:22.214Z,296.99
2019-06-08T06:50:22.233Z,299.01
2019-06-08T06:51:26.225Z,299.16
2019-06-08T06:52:22.249Z,296.98
2019-06-08T06:53:22.708Z,300.62
2019-06-08T06:54:22.162Z,300.56
2019-06-08T06:55:25.231Z,297.81
2019-06-08T06:56:22.224Z,300.20
2019-06-08T06:57:22.217Z,300.26
2019-06-08T06:58:22.182Z,299.31
2019-06-08T06:59:22.198Z,299.61
2019-06-08T07:00:22.190Z,296.68
2019-06-08T07:01:22.098Z,297.70
2019-06-08T07:02:22.625Z,297.68
2019-06-08T07:03:22.623Z,298.93
2019-06-08T07:04:22.101Z,299.24
2019-06-08T07:05:22.113Z,299.01
2019-06-08T07:06:22.052Z,297.61
2019-06-08T07:07:22.113Z,296.03
2019-06-08T07:08:22.155Z,300.20
2019-06-08T07:09:22.010Z,299.45
2019-06-08T07:10:22.273Z,297.82
2019-06-08T07:11:21.909Z,299.30
2019-06-08T07:12:21.918Z,300.17
2019-06-08T07:13:22.118Z,297.98
2019-06-08T07:14:21.869Z,295.76
2019-06-08T07:15:21.897Z,298.90
2019-06-08T07:16:21.877Z,295.10
2019-06-08T07:17:21.830Z,298.36
2019-06-08T07:18:21.846Z,298.64
2019-06-08T07:19:21.812Z,297.74
2019-06-08T07:20:21.840Z,298.74
2019-06-08T07:21:21.880Z,298.94
2019-06-08T07:22:21.779Z,298.64
2019-06-08T07:23:21.759Z,299.22
2019-06-08T07:24:21.787Z,297.96
2019-06-08T07:25:21.743Z,298.73
2019-06-08T07:26:21.746Z,294.80
2019-06-08T07:27:21.727Z,297.28
2019-06-08T07:28:21.688Z,298.34
2019-06-08T07:29:21.688Z,297.88
2019-06-08T07:30:21.747Z,298.33
2019-06-08T07:31:21.689Z,299.06
2019-06-08T07:32:21.677Z,299.59
2019-06-08T07:33:21.670Z,298.86
2019-06-08T07:34:21.654Z,298.56
2019-06-08T07:35:21.632Z,299.33
2019-06-08T07:36:21.654Z,298.73
2019-06-08T07:37:21.601Z,300.15
2019-06-08T07:38:21.643Z,299.01
2019-06-08T07:39:21.605Z,299.71
2019-06-08T07:40:21.602Z,294.33
2019-06-08T07:41:21.587Z,298.40
2019-06-08T07:42:21.605Z,298.65
2019-06-08T07:43:21.613Z,298.41
2019-06-08T07:44:21.534Z,297.60
2019-06-08T07:45:21.520Z,296.48
2019-06-08T07:46:21.547Z,298.08
2019-06-08T07:47:21.737Z,296.62
2019-06-08T07:48:21.501Z,298.32
2019-06-08T07:49:21.516Z,298.65
2019-06-08T07:50:21.502Z,297.31
2019-06-08T07:51:21.518Z,298.07
2019-06-08T07:52:21.480Z,297.26
2019-06-08T07:53:21.476Z,298.65
2019-06-08T07:54:21.450Z,299.20
2019-06-08T07:55:21.430Z,299.84
2019-06-08T07:56:21.432Z,298.33
2019-06-08T07:57:21.413Z,299.13
2019-06-08T07:58:21.393Z,296.76
2019-06-08T07:59:21.390Z,299.32
2019-06-08T08:00:21.371Z,299.33
2019-06-08T08:01:35.256Z,299.26
2019-06-08T08:02:22.424Z,299.49
2019-06-08T08:03:21.394Z,299.30
2019-06-08T08:04:21.310Z,298.80
2019-06-08T08:05:21.367Z,299.61
2019-06-08T08:06:21.416Z,300.55
2019-06-08T08:07:21.287Z,299.63
2019-06-08T08:08:21.310Z,300.72
2019-06-08T08:09:21.318Z,300.53
2019-06-08T08:10:21.296Z,302.15
2019-06-08T08:11:21.315Z,301.32
2019-06-08T08:12:21.336Z,300.38
2019-06-08T08:13:21.221Z,301.94
2019-06-08T08:14:21.233Z,300.23
2019-06-08T08:15:21.191Z,298.95
2019-06-08T08:16:21.221Z,299.44
2019-06-08T08:17:21.203Z,302.60
2019-06-08T08:18:21.162Z,300.83
2019-06-08T08:19:21.206Z,301.90
2019-06-08T08:20:21.161Z,300.20
2019-06-08T08:21:25.509Z,300.75
2019-06-08T08:22:26.023Z,300.00
2019-06-08T08:23:22.200Z,301.23
2019-06-08T08:24:21.277Z,300.62
2019-06-08T08:25:21.130Z,300.18
2019-06-08T08:26:21.088Z,300.52
2019-06-08T08:27:21.459Z,299.86
2019-06-08T08:28:21.054Z,300.96
2019-06-08T08:29:21.088Z,300.57
2019-06-08T08:30:21.051Z,301.25
2019-06-08T08:31:21.023Z,301.00
2019-06-08T08:32:21.032Z,300.13
2019-06-08T08:33:21.096Z,300.53
2019-06-08T08:34:21.001Z,301.48
2019-06-08T08:35:20.991Z,299.97
2019-06-08T08:36:21.152Z,301.99
2019-06-08T08:37:20.969Z,300.99
2019-06-08T08:38:20.990Z,301.15
2019-06-08T08:39:20.971Z,301.13
2019-06-08T08:40:20.944Z,301.15
2019-06-08T08:41:20.982Z,303.12
2019-06-08T08:42:20.938Z,301.63
2019-06-08T08:43:23.011Z,302.23
2019-06-08T08:44:20.880Z,301.65
2019-06-08T08:45:20.891Z,301.25
2019-06-08T08:46:20.943Z,301.99
2019-06-08T08:47:21.126Z,301.51
2019-06-08T08:48:27.521Z,299.92
2019-06-08T08:49:21.869Z,301.60
2019-06-08T08:50:20.863Z,301.14
2019-06-08T08:51:20.801Z,300.38
2019-06-08T08:52:33.724Z,300.05
2019-06-08T08:53:21.816Z,301.35
2019-06-08T08:54:20.782Z,301.40
2019-06-08T08:55:20.781Z,301.06
2019-06-08T08:56:20.778Z,301.27
2019-06-08T08:57:20.785Z,300.99
2019-06-08T08:58:20.754Z,301.62
2019-06-08T08:59:20.747Z,300.81
2019-06-08T09:00:20.842Z,302.14
2019-06-08T09:01:20.896Z,302.22
2019-06-08T09:02:21.393Z,300.57
2019-06-08T09:03:28.710Z,300.68
2019-06-08T09:04:21.725Z,301.74
2019-06-08T09:05:20.683Z,300.96
2019-06-08T09:06:20.666Z,301.46
2019-06-08T09:07:20.760Z,300.67
2019-06-08T09:08:23.215Z,300.38
2019-06-08T09:09:21.649Z,300.78
2019-06-08T09:10:20.629Z,300.23
2019-06-08T09:11:20.634Z,299.13
2019-06-08T09:12:20.571Z,299.16
2019-06-08T09:13:20.816Z,301.98
2019-06-08T09:14:20.727Z,301.67
2019-06-08T09:15:20.726Z,300.64
2019-06-08T09:16:22.711Z,300.22
2019-06-08T09:17:21.060Z,299.42
2019-06-08T09:18:20.563Z,301.53
2019-06-08T09:19:20.997Z,301.80
2019-06-08T09:20:20.589Z,300.48
2019-06-08T09:21:20.551Z,298.06
2019-06-08T09:22:20.501Z,297.88
2019-06-08T09:23:21.920Z,300.96
2019-06-08T09:24:20.459Z,299.77
2019-06-08T09:25:20.436Z,297.10
2019-06-08T09:26:20.420Z,298.68
2019-06-08T09:27:20.602Z,299.23
2019-06-08T09:28:20.510Z,298.78
2019-06-08T09:29:20.380Z,299.23
2019-06-08T09:30:20.724Z,301.47
2019-06-08T09:31:20.410Z,298.63
2019-06-08T09:32:20.431Z,299.37
2019-06-08T09:33:20.356Z,296.72
2019-06-08T09:34:20.450Z,299.95
2019-06-08T09:35:21.348Z,299.66
2019-06-08T09:36:20.343Z,298.43
2019-06-08T09:37:20.384Z,298.02
2019-06-08T09:38:20.349Z,295.61
2019-06-08T09:39:20.314Z,299.47
2019-06-08T09:40:22.184Z,297.44
2019-06-08T09:41:21.214Z,297.31
2019-06-08T09:42:21.219Z,296.69
2019-06-08T09:43:20.319Z,299.20
2019-06-08T09:44:20.626Z,302.59
2019-06-08T09:45:20.347Z,300.47
2019-06-08T09:46:20.288Z,301.23
2019-06-08T09:47:22.296Z,299.92
2019-06-08T09:48:20.259Z,306.02
2019-06-08T09:49:20.169Z,300.43
2019-06-08T09:50:21.272Z,299.73
2019-06-08T09:51:20.148Z,298.02
2019-06-08T09:52:21.713Z,298.45
2019-06-08T09:53:28.519Z,304.40
2019-06-08T09:54:21.171Z,300.74
2019-06-08T09:55:20.221Z,299.26
2019-06-08T09:56:20.288Z,297.75
2019-06-08T09:57:20.106Z,303.13
2019-06-08T09:58:20.105Z,296.18
2019-06-08T09:59:20.110Z,298.46
2019-06-08T10:00:22.249Z,299.70
2019-06-08T10:01:21.113Z,299.99
2019-06-08T10:02:20.322Z,300.34
2019-06-08T10:03:20.046Z,297.99
2019-06-08T10:04:20.036Z,300.63
2019-06-08T10:05:20.070Z,297.17
2019-06-08T10:06:20.436Z,297.88
2019-06-08T10:07:20.153Z,297.95
2019-06-08T10:08:20.742Z,298.91
2019-06-08T10:09:20.033Z,299.69
2019-06-08T10:10:19.975Z,296.12
2019-06-08T10:11:19.952Z,298.55
2019-06-08T10:12:19.947Z,298.72
2019-06-08T10:13:19.975Z,298.71
2019-06-08T10:14:19.996Z,299.51
2019-06-08T10:15:19.937Z,301.80
2019-06-08T10:16:19.967Z,298.31
2019-06-08T10:17:21.071Z,299.86
2019-06-08T10:18:19.913Z,300.70
2019-06-08T10:19:19.909Z,300.82
2019-06-08T10:20:19.927Z,298.94
2019-06-08T10:21:21.126Z,301.10
2019-06-08T10:22:20.087Z,301.55
2019-06-08T10:23:30.718Z,300.42
2019-06-08T10:24:21.018Z,301.68
2019-06-08T10:25:20.802Z,297.29
2019-06-08T10:26:19.999Z,301.66
2019-06-08T10:27:19.824Z,298.97
2019-06-08T10:28:21.706Z,298.18
2019-06-08T10:29:19.911Z,300.19
2019-06-08T10:30:19.772Z,299.07
2019-06-08T10:31:33.169Z,299.35
2019-06-08T10:32:20.773Z,300.02
2019-06-08T10:33:20.189Z,300.54
2019-06-08T10:34:19.714Z,302.17
2019-06-08T10:35:21.011Z,298.16
2019-06-08T10:36:19.713Z,300.50
2019-06-08T10:37:19.731Z,300.12
2019-06-08T10:38:19.716Z,299.90
2019-06-08T10:39:19.649Z,298.34
2019-06-08T10:40:19.681Z,299.70
2019-06-08T10:41:21.836Z,303.27
2019-06-08T10:42:19.696Z,299.08
2019-06-08T10:43:20.013Z,301.02
2019-06-08T10:44:19.721Z,302.26
2019-06-08T10:45:19.676Z,301.36
2019-06-08T10:46:20.970Z,302.07
2019-06-08T10:47:19.613Z,301.24
2019-06-08T10:48:19.578Z,300.58
2019-06-08T10:49:19.854Z,298.75
2019-06-08T10:50:19.629Z,302.30
2019-06-08T10:51:19.577Z,300.00
2019-06-08T10:52:20.349Z,300.38
2019-06-08T10:53:19.516Z,300.63
2019-06-08T10:54:19.585Z,300.59
2019-06-08T10:55:19.560Z,302.54
2019-06-08T10:56:19.519Z,299.09
2019-06-08T10:57:19.499Z,297.52
2019-06-08T10:58:19.620Z,300.98
2019-06-08T10:59:19.462Z,300.27
2019-06-08T11:00:23.569Z,298.91
2019-06-08T11:01:19.518Z,301.20
2019-06-08T11:02:20.236Z,297.64
2019-06-08T11:03:19.449Z,299.49
2019-06-08T11:04:19.835Z,303.37
2019-06-08T11:05:19.470Z,299.65
2019-06-08T11:06:19.376Z,300.99
2019-06-08T11:07:19.396Z,304.43
2019-06-08T11:08:19.369Z,305.80
2019-06-08T11:09:20.345Z,298.31
2019-06-08T11:10:20.204Z,295.01
2019-06-08T11:11:20.182Z,296.37
2019-06-08T11:12:19.460Z,290.90
2019-06-08T11:13:19.288Z,292.54
2019-06-08T11:14:22.553Z,295.03
2019-06-08T11:15:19.290Z,295.30
2019-06-08T11:16:19.325Z,296.08
2019-06-08T11:17:19.301Z,289.58
2019-06-08T11:18:20.545Z,295.66
2019-06-08T11:19:20.378Z,296.32
2019-06-08T11:20:19.225Z,295.18
2019-06-08T11:21:21.966Z,293.59
2019-06-08T11:22:19.224Z,293.83
2019-06-08T11:23:19.174Z,299.05
2019-06-08T11:24:24.668Z,295.21
2019-06-08T11:25:20.337Z,294.72
2019-06-08T11:26:24.026Z,296.32
2019-06-08T11:27:20.175Z,296.09
2019-06-08T11:28:19.205Z,291.01
2019-06-08T11:29:19.118Z,296.95
2019-06-08T11:30:26.709Z,295.06
2019-06-08T11:31:20.320Z,297.21
2019-06-08T11:32:22.002Z,297.64
2019-06-08T11:33:19.710Z,297.55
2019-06-08T11:34:21.755Z,297.26
2019-06-08T11:35:19.127Z,297.75
2019-06-08T11:36:19.262Z,294.78
2019-06-08T11:37:21.072Z,294.73
2019-06-08T11:38:20.282Z,292.35
2019-06-08T11:39:19.030Z,298.22
2019-06-08T11:40:20.851Z,295.54
2019-06-08T11:41:22.626Z,296.57
2019-06-08T11:42:19.247Z,298.52
2019-06-08T11:43:18.961Z,301.49
2019-06-08T11:44:18.951Z,295.99
2019-06-08T11:45:18.985Z,298.97
2019-06-08T11:46:21.585Z,296.94
2019-06-08T11:47:18.927Z,297.40
2019-06-08T11:48:18.921Z,295.11
2019-06-08T11:49:19.021Z,298.87
2019-06-08T11:50:18.888Z,299.74
2019-06-08T11:51:18.904Z,298.77
2019-06-08T11:52:19.795Z,298.49
2019-06-08T11:53:18.849Z,295.07
2019-06-08T11:54:33.027Z,295.36
2019-06-08T11:55:19.830Z,298.30
2019-06-08T11:56:18.881Z,297.02
2019-06-08T11:57:21.791Z,298.63
2019-06-08T11:58:22.707Z,295.92
2019-06-08T11:59:18.810Z,294.16
2019-06-08T12:00:27.421Z,293.50
2019-06-08T12:01:19.822Z,296.28
2019-06-08T12:02:19.368Z,297.74
2019-06-08T12:03:18.762Z,295.46
2019-06-08T12:04:18.740Z,297.52
2019-06-08T12:05:18.717Z,297.55
2019-06-08T12:06:18.781Z,297.08
2019-06-08T12:07:18.690Z,296.60
2019-06-08T12:08:20.901Z,298.34
2019-06-08T12:09:19.094Z,299.11
2019-06-08T12:10:18.717Z,298.66
2019-06-08T12:11:20.861Z,298.60
2019-06-08T12:12:21.176Z,291.77
2019-06-08T12:13:18.663Z,292.98
2019-06-08T12:14:18.652Z,298.31
2019-06-08T12:15:21.194Z,296.54
2019-06-08T12:16:22.029Z,297.11
2019-06-08T12:17:22.215Z,295.84
2019-06-08T12:18:18.601Z,298.52
2019-06-08T12:19:20.943Z,301.08
2019-06-08T12:20:21.279Z,299.24
2019-06-08T12:21:19.570Z,298.34
2019-06-08T12:22:21.647Z,296.42
2019-06-08T12:23:18.531Z,297.08
2019-06-08T12:24:18.562Z,298.46
2019-06-08T12:25:18.525Z,300.50
2019-06-08T12:26:18.650Z,299.67
2019-06-08T12:27:29.106Z,294.86
2019-06-08T12:28:19.517Z,297.05
2019-06-08T12:29:19.028Z,299.47
2019-06-08T12:30:25.655Z,299.40
2019-06-08T12:31:22.494Z,301.85
2019-06-08T12:32:18.542Z,293.75